Wednesday, February 22, 2017, 12:23 PM EST

KLNS, Lancaster Airport

Location: Lititz, PA, United States Lat: 40.117
Local Time: 12:23 PM EST (17:23 GMT) Lon: -76.3
Time Zone: US/Eastern Elev: 403 ft

Show me the last for .
Show Decoded

2017-02-22 11:53 METAR KLNS 221653Z COR VRB03KT 10SM CLR MM/MM A2997 =
2017-02-22 10:53 METAR KLNS 221553Z 00000KT 10SM CLR 11/05 A2999 RMK AO2 SLP159 T01060050 =
2017-02-22 09:53 METAR KLNS 221453Z 00000KT 10SM BKN100 09/04 A3002 RMK AO2 SLP167 T00890044
                 58002 =
2017-02-22 08:53 METAR KLNS 221353Z 15003KT 10SM CLR 07/04 A3003 RMK AO2 SLP171 T00670044 =
2017-02-22 07:53 METAR KLNS 221253Z 12003KT 10SM FEW100 06/04 A3003 RMK AO2 SLP172 T00560039 =
2017-02-22 06:53 METAR KLNS 221153Z 09003KT 10SM CLR 04/03 A3003 RMK AO2 SLP170 T00390033 10050
                 20033 55003 =
2017-02-22 05:53 METAR KLNS 221053Z 10004KT 10SM BKN100 04/03 A3002 RMK AO2 SLP168 T00390033 =
2017-02-22 04:53 METAR KLNS 220953Z AUTO 10003KT 10SM OVC085 04/03 A3003 RMK AO2 SLP172 T00390028
                 =
2017-02-21 22:53 METAR KLNS 220353Z 10003KT 10SM BKN120 04/02 A3012 RMK AO2 SLP201 T00440022 =
2017-02-21 21:53 METAR KLNS 220253Z 11006KT 10SM CLR 05/02 A3014 RMK AO2 SLP210 T00500022 =
2017-02-21 20:53 METAR KLNS 220153Z 12005KT 10SM CLR 05/02 A3016 RMK AO2 SLP217 T00500022 =
2017-02-21 19:53 METAR KLNS 220053Z COR 13005KT 10SM CLR 06/02 A3016 =
2017-02-21 18:53 METAR KLNS 212353Z COR 12005KT 10SM CLR 07/01 A3016 =
2017-02-21 15:53 METAR KLNS 212053Z 17009KT 10SM CLR 09/M01 A3018 RMK AO2 SLP221 T00941011 56024
                 =
2017-02-21 14:53 METAR KLNS 211953Z 16009KT 10SM CLR 10/M02 A3019 RMK AO2 SLP226 T01001017 =
2017-02-21 13:53 METAR KLNS 211853Z 17009KT 10SM CLR 10/M03 A3023 RMK AO2 SLP238 T01001028 =
2017-02-21 12:53 METAR KLNS 211753Z 15007KT 10SM CLR 09/M02 A3025 RMK AO2 SLP245 T00941017 10094
                 21006 58029 =

Support USWX by starting your Amazon purchase here.